createdAt,value
2022-11-10T00:01:09.079Z,15.82
2022-11-10T00:03:56.053Z,15.83
2022-11-10T00:06:44.882Z,15.71
2022-11-10T00:09:31.314Z,15.65
2022-11-10T00:12:20.777Z,15.57
2022-11-10T00:15:26.386Z,15.59
2022-11-10T00:18:14.011Z,15.49
2022-11-10T00:21:05.249Z,15.71
2022-11-10T00:23:52.167Z,15.57
2022-11-10T00:26:38.639Z,15.53
2022-11-10T00:29:25.506Z,15.50
2022-11-10T00:32:11.873Z,15.43
2022-11-10T00:34:58.722Z,15.43
2022-11-10T00:37:45.036Z,15.54
2022-11-10T00:40:32.836Z,15.47
2022-11-10T00:43:22.530Z,15.47
2022-11-10T00:46:13.656Z,15.41
2022-11-10T00:49:00.137Z,15.40
2022-11-10T00:51:48.080Z,15.45
2022-11-10T00:54:34.669Z,15.50
2022-11-10T00:57:22.512Z,15.52
2022-11-10T01:00:10.219Z,15.51
2022-11-10T01:02:57.066Z,15.64
2022-11-10T01:05:44.957Z,15.65
2022-11-10T01:08:32.169Z,15.71
2022-11-10T01:11:22.539Z,15.87
2022-11-10T01:14:10.360Z,15.89
2022-11-10T01:16:56.592Z,15.68
2022-11-10T01:19:43.458Z,15.76
2022-11-10T01:22:30.610Z,15.65
2022-11-10T01:25:17.881Z,15.67
2022-11-10T01:28:04.739Z,15.70
2022-11-10T01:30:58.819Z,15.61
2022-11-10T01:33:46.057Z,15.56
2022-11-10T01:36:32.850Z,15.37
2022-11-10T01:39:19.621Z,15.20
2022-11-10T01:42:06.727Z,15.21
2022-11-10T01:45:23.660Z,15.31
2022-11-10T01:48:16.269Z,15.20
2022-11-10T01:51:26.070Z,15.13
2022-11-10T01:54:37.670Z,15.19
2022-11-10T01:57:24.072Z,15.44
2022-11-10T02:00:13.000Z,15.39
2022-11-10T02:03:24.726Z,15.28
2022-11-10T02:06:14.316Z,15.52
2022-11-10T02:09:00.753Z,15.24
2022-11-10T02:11:49.958Z,15.36
2022-11-10T02:14:37.683Z,15.31
2022-11-10T02:17:24.649Z,15.28
2022-11-10T02:20:13.477Z,15.43
2022-11-10T02:23:11.080Z,15.45
2022-11-10T02:25:58.937Z,15.57
2022-11-10T02:28:45.894Z,15.49
2022-11-10T02:31:32.183Z,15.38
2022-11-10T02:34:18.949Z,15.54
2022-11-10T02:37:05.801Z,15.44
2022-11-10T02:39:53.660Z,15.49
2022-11-10T02:42:40.188Z,15.54
2022-11-10T02:45:28.160Z,15.42
2022-11-10T02:48:15.941Z,15.51
2022-11-10T02:51:02.670Z,15.35
2022-11-10T02:53:50.521Z,15.46
2022-11-10T02:56:38.540Z,15.42
2022-11-10T02:59:24.900Z,15.40
2022-11-10T03:02:12.839Z,15.12
2022-11-10T03:04:59.678Z,15.06
2022-11-10T03:07:46.506Z,15.31
2022-11-10T03:10:33.489Z,15.09
2022-11-10T03:13:20.396Z,15.20
2022-11-10T03:16:07.511Z,15.20
2022-11-10T03:18:54.489Z,15.20
2022-11-10T03:21:41.201Z,15.30
2022-11-10T03:24:29.549Z,15.35
2022-11-10T03:27:16.094Z,15.56
2022-11-10T03:30:03.481Z,15.49
2022-11-10T03:32:50.080Z,15.55
2022-11-10T03:35:37.340Z,15.56
2022-11-10T03:38:23.749Z,15.60
2022-11-10T03:41:19.747Z,15.57
2022-11-10T03:44:07.061Z,15.55
2022-11-10T03:46:54.341Z,15.51
2022-11-10T03:49:40.580Z,15.56
2022-11-10T03:52:27.477Z,15.54
2022-11-10T03:55:17.164Z,15.48
2022-11-10T03:58:04.670Z,15.56
2022-11-10T04:00:53.555Z,15.51
2022-11-10T04:03:40.468Z,15.33
2022-11-10T04:06:45.593Z,15.25
2022-11-10T04:09:33.188Z,15.34
2022-11-10T04:12:38.053Z,15.31
2022-11-10T04:15:43.305Z,15.33
2022-11-10T04:18:30.085Z,15.45
2022-11-10T04:21:17.456Z,15.26
2022-11-10T04:24:03.870Z,15.34
2022-11-10T04:26:51.029Z,15.17
2022-11-10T04:29:37.516Z,15.10
2022-11-10T04:32:24.198Z,15.11
2022-11-10T04:35:10.599Z,15.17
2022-11-10T04:37:57.766Z,15.23
2022-11-10T04:40:44.159Z,15.18
2022-11-10T04:43:31.764Z,15.19
2022-11-10T04:46:34.264Z,15.33
2022-11-10T04:49:21.253Z,15.32
2022-11-10T04:52:07.828Z,15.05
2022-11-10T04:54:54.570Z,15.13
2022-11-10T04:57:43.289Z,14.94
2022-11-10T05:00:29.945Z,14.89
2022-11-10T05:03:16.524Z,14.91
2022-11-10T05:06:03.399Z,14.79
2022-11-10T11:23:24.382Z,21.58
2022-11-10T11:26:30.391Z,21.09
2022-11-10T11:29:39.668Z,21.30
2022-11-10T11:32:54.559Z,21.50
2022-11-10T11:35:47.130Z,21.10
2022-11-10T11:38:55.420Z,20.48
2022-11-10T11:41:42.660Z,20.81
2022-11-10T11:44:57.759Z,20.88
2022-11-10T11:48:16.263Z,21.35
2022-11-10T11:51:22.965Z,21.26
2022-11-10T11:54:58.499Z,21.65
2022-11-10T11:57:55.467Z,21.49
2022-11-10T12:01:32.730Z,21.48
2022-11-10T12:04:38.768Z,21.19
2022-11-10T12:07:43.362Z,20.90
2022-11-10T12:10:43.123Z,21.27
2022-11-10T12:13:37.215Z,21.10
2022-11-10T12:16:30.115Z,20.63
2022-11-10T12:19:29.813Z,20.43
2022-11-10T12:23:04.510Z,20.71
2022-11-10T12:26:22.169Z,21.21
2022-11-10T12:29:33.016Z,21.11
2022-11-10T12:32:32.616Z,21.23
2022-11-10T12:35:34.559Z,22.01
2022-11-10T12:38:27.176Z,22.78
2022-11-10T12:41:19.380Z,22.11
2022-11-10T12:44:17.706Z,22.72
2022-11-10T12:47:12.446Z,23.12
2022-11-10T12:50:16.875Z,23.17
2022-11-10T12:53:19.115Z,23.00
2022-11-10T12:56:45.850Z,22.22
2022-11-10T12:59:34.611Z,22.69
2022-11-10T13:02:40.696Z,22.90
2022-11-10T13:05:41.180Z,24.27
2022-11-10T13:08:47.399Z,24.11
2022-11-10T13:11:36.889Z,23.58
2022-11-10T13:14:30.262Z,23.61
2022-11-10T13:17:26.977Z,23.75
2022-11-10T13:20:50.594Z,24.24
2022-11-10T13:23:38.261Z,24.49
2022-11-10T13:26:39.997Z,24.63
2022-11-10T13:29:49.000Z,24.05
2022-11-10T13:32:36.610Z,24.25
2022-11-10T13:35:29.830Z,23.52
2022-11-10T13:38:37.220Z,23.36
2022-11-10T13:41:26.973Z,22.74
2022-11-10T13:44:29.610Z,22.36
2022-11-10T13:47:40.665Z,22.68
2022-11-10T13:51:03.900Z,23.54
2022-11-10T13:54:25.901Z,23.50
2022-11-10T13:57:35.199Z,22.44
2022-11-10T14:00:29.374Z,22.66
2022-11-10T14:03:47.821Z,22.64
2022-11-10T14:06:37.422Z,22.10
2022-11-10T14:09:33.740Z,22.94
2022-11-10T14:12:34.005Z,23.34
2022-11-10T14:15:29.174Z,23.41
2022-11-10T14:18:39.961Z,22.48
2022-11-10T14:21:56.858Z,21.93
2022-11-10T14:25:10.199Z,21.63
2022-11-10T14:27:58.442Z,22.57
2022-11-10T14:30:52.793Z,22.22
2022-11-10T14:33:39.148Z,21.91
2022-11-10T14:36:25.995Z,22.31
2022-11-10T14:39:16.955Z,21.63
2022-11-10T14:42:05.998Z,22.13
2022-11-10T14:45:22.463Z,23.42
2022-11-10T14:48:19.167Z,23.39
2022-11-10T14:51:11.973Z,24.03
2022-11-10T14:53:58.852Z,24.01
2022-11-10T14:56:45.246Z,23.90
2022-11-10T14:59:33.265Z,23.30
2022-11-10T15:02:19.990Z,23.07
2022-11-10T15:05:14.578Z,22.81
2022-11-10T15:08:03.416Z,22.30
2022-11-10T15:10:53.452Z,21.52
2022-11-10T15:13:40.320Z,21.09
2022-11-10T15:16:36.856Z,20.96
2022-11-10T15:19:32.987Z,20.97
2022-11-10T15:22:41.477Z,20.93
2022-11-10T15:25:38.098Z,20.70
2022-11-10T15:28:34.452Z,20.51
2022-11-10T15:31:33.303Z,20.22
2022-11-10T15:34:41.937Z,20.37
2022-11-10T15:37:31.816Z,20.36
2022-11-10T15:40:28.565Z,20.34
2022-11-10T15:43:24.823Z,20.03
2022-11-10T15:46:25.179Z,19.72
2022-11-10T15:49:33.305Z,19.84
2022-11-10T15:52:22.894Z,19.74
2022-11-10T15:55:23.045Z,19.67
2022-11-10T15:58:22.836Z,19.27
2022-11-10T16:01:12.947Z,19.31
2022-11-10T16:04:00.024Z,19.01
2022-11-10T16:06:46.964Z,19.09
2022-11-10T16:09:35.448Z,18.39
2022-11-10T16:12:23.537Z,18.61
2022-11-10T16:15:19.866Z,18.88
2022-11-10T16:18:17.329Z,19.08
2022-11-10T16:21:05.135Z,18.96
2022-11-10T16:23:52.936Z,19.14
2022-11-10T16:26:40.949Z,18.95
2022-11-10T16:29:27.576Z,18.85
2022-11-10T16:32:15.666Z,19.06
2022-11-10T16:35:04.214Z,18.78
2022-11-10T16:37:51.434Z,18.73
2022-11-10T16:40:38.241Z,18.58
2022-11-10T16:43:26.518Z,18.58
2022-11-10T16:46:22.814Z,18.53
2022-11-10T16:49:36.423Z,18.38
2022-11-10T16:52:22.963Z,18.35
2022-11-10T16:55:14.120Z,18.34
2022-11-10T16:58:01.121Z,18.37
2022-11-10T17:00:49.064Z,18.25
2022-11-10T17:03:46.935Z,18.31
2022-11-10T17:06:34.585Z,18.48
2022-11-10T17:09:28.099Z,18.29
2022-11-10T17:12:15.180Z,18.20
2022-11-10T17:15:01.808Z,18.20
2022-11-10T17:17:54.657Z,18.17
2022-11-10T17:20:43.377Z,18.17
2022-11-10T17:23:30.400Z,18.22
2022-11-10T17:26:19.848Z,18.10
2022-11-10T17:29:06.889Z,18.19
2022-11-10T17:31:54.428Z,18.03
2022-11-10T17:34:41.263Z,17.91
2022-11-10T17:37:27.618Z,18.01
2022-11-10T17:40:18.975Z,17.85
2022-11-10T17:43:05.551Z,17.89
2022-11-10T17:45:52.362Z,17.90
2022-11-10T17:48:38.880Z,17.65
2022-11-10T17:51:26.750Z,17.67
2022-11-10T17:54:15.790Z,17.67
2022-11-10T17:57:04.822Z,17.66
2022-11-10T17:59:51.549Z,17.60
2022-11-10T18:02:39.382Z,17.62
2022-11-10T18:05:27.079Z,17.65
2022-11-10T18:08:15.208Z,17.51
2022-11-10T18:11:01.815Z,17.64
2022-11-10T18:13:48.589Z,17.68
2022-11-10T18:16:34.992Z,17.52
2022-11-10T18:19:21.755Z,17.44
2022-11-10T18:22:08.721Z,17.64
2022-11-10T18:24:55.303Z,17.61
2022-11-10T18:27:43.362Z,17.54
2022-11-10T18:30:34.866Z,17.38
2022-11-10T18:33:23.634Z,17.41
2022-11-10T18:36:11.893Z,17.45
2022-11-10T18:38:58.330Z,17.46
2022-11-10T18:41:52.551Z,17.27
2022-11-10T18:44:39.768Z,17.28
2022-11-10T18:47:26.559Z,17.32
2022-11-10T18:50:13.262Z,17.45
2022-11-10T18:53:04.197Z,17.31
2022-11-10T18:55:55.357Z,17.33
2022-11-10T18:58:42.623Z,17.17
2022-11-10T19:01:29.652Z,17.23
2022-11-10T19:04:17.869Z,17.04
2022-11-10T19:07:04.691Z,17.00
2022-11-10T19:09:53.169Z,17.03
2022-11-10T19:12:39.751Z,17.02
2022-11-10T19:15:27.628Z,16.97
2022-11-10T19:18:14.502Z,16.75
2022-11-10T19:21:07.838Z,16.79
2022-11-10T19:23:56.679Z,16.91
2022-11-10T19:26:43.677Z,16.86
2022-11-10T19:29:30.520Z,16.88
2022-11-10T19:32:22.131Z,16.81
2022-11-10T19:35:13.827Z,16.63
2022-11-10T19:38:00.758Z,16.77
2022-11-10T19:40:47.467Z,16.57
2022-11-10T19:43:34.810Z,16.74
2022-11-10T19:46:28.047Z,16.43
2022-11-10T19:49:15.040Z,16.45
2022-11-10T19:52:01.776Z,16.49
2022-11-10T19:54:48.510Z,16.54
2022-11-10T19:57:35.994Z,16.55
2022-11-10T20:00:24.646Z,16.43
2022-11-10T20:03:11.787Z,16.39
2022-11-10T20:06:01.137Z,16.49
2022-11-10T20:08:49.365Z,16.41
2022-11-10T20:11:36.104Z,16.44
2022-11-10T20:14:22.564Z,16.52
2022-11-10T20:17:09.534Z,16.38
2022-11-10T20:19:55.847Z,16.45
2022-11-10T20:22:42.614Z,16.37
2022-11-10T20:25:30.074Z,16.27
2022-11-10T20:28:17.105Z,16.20
2022-11-10T20:31:06.334Z,16.01
2022-11-10T20:33:55.792Z,16.11
2022-11-10T20:36:42.595Z,16.07
2022-11-10T20:39:29.586Z,16.10
2022-11-10T20:42:16.294Z,16.09
2022-11-10T20:45:03.107Z,16.00
2022-11-10T20:47:49.744Z,15.94
2022-11-10T20:50:40.016Z,16.09
2022-11-10T20:53:29.306Z,15.98
2022-11-10T20:56:16.328Z,16.05
2022-11-10T20:59:03.125Z,15.92
2022-11-10T21:01:50.084Z,15.85
2022-11-10T21:04:41.771Z,15.76
2022-11-10T21:07:30.035Z,15.83
2022-11-10T21:10:16.621Z,15.77
2022-11-10T21:13:03.347Z,15.72
2022-11-10T21:16:01.413Z,15.77
2022-11-10T21:18:48.109Z,15.82
2022-11-10T21:21:34.953Z,15.83
2022-11-10T21:24:23.133Z,15.84
2022-11-10T21:27:11.491Z,15.77
2022-11-10T21:29:59.521Z,15.89
2022-11-10T21:32:46.054Z,15.76
2022-11-10T21:35:38.175Z,15.58
2022-11-10T21:38:25.385Z,15.63
2022-11-10T21:41:12.472Z,15.58
2022-11-10T21:43:59.208Z,15.56
2022-11-10T21:46:47.342Z,15.56
2022-11-10T21:49:34.434Z,15.63
2022-11-10T21:52:21.143Z,15.52
2022-11-10T21:55:08.622Z,15.75
2022-11-10T21:57:58.367Z,15.45
2022-11-10T22:00:45.192Z,15.42
2022-11-10T22:03:33.786Z,15.52
2022-11-10T22:06:21.609Z,15.46
2022-11-10T22:09:09.833Z,15.44
2022-11-10T22:12:14.889Z,15.46
2022-11-10T22:15:21.030Z,15.42
2022-11-10T22:18:33.834Z,15.16
2022-11-10T22:21:21.939Z,15.19
2022-11-10T22:24:23.846Z,15.17
2022-11-10T22:27:10.657Z,15.12
2022-11-10T22:29:57.127Z,15.39
2022-11-10T22:32:44.073Z,15.22
2022-11-10T22:35:46.075Z,15.22
2022-11-10T22:38:36.282Z,15.16
2022-11-10T22:41:41.375Z,15.12
2022-11-10T22:44:28.634Z,15.07
2022-11-10T22:47:17.006Z,15.03
2022-11-10T22:50:04.306Z,14.96
2022-11-10T22:52:51.016Z,14.83
2022-11-10T22:55:37.748Z,14.86
2022-11-10T22:58:24.385Z,15.00
2022-11-10T23:01:12.845Z,15.19
2022-11-10T23:04:00.687Z,14.79
2022-11-10T23:06:48.607Z,14.69
2022-11-10T23:09:35.577Z,14.63
2022-11-10T23:12:22.665Z,14.69
2022-11-10T23:15:09.909Z,14.69
2022-11-10T23:17:59.940Z,14.44
2022-11-10T23:20:49.246Z,14.62
2022-11-10T23:23:37.915Z,14.69
2022-11-10T23:26:27.700Z,14.61
2022-11-10T23:29:15.530Z,14.81
2022-11-10T23:32:02.781Z,14.69
2022-11-10T23:34:50.000Z,14.78
2022-11-10T23:37:36.548Z,14.47
2022-11-10T23:40:24.234Z,14.34
2022-11-10T23:43:10.843Z,14.29
2022-11-10T23:46:07.281Z,14.40
2022-11-10T23:48:54.925Z,14.40
2022-11-10T23:51:43.142Z,14.48
2022-11-10T23:54:29.616Z,14.39
2022-11-10T23:57:17.377Z,14.50
